Historique des mesures à Cassis (13260), France
Quotidien Résumé Septembre 29, 2017 Unités:  Métrique    US   Métrique/US
« Précédent (Jour)
Suivant (Jour) »
Quotidien Hebdomadaire Mensuel Annuel Période au choix
  Maximum: Minimum: Moyenne:
Température: TemperatureC °C 17.6 °C 19.4 °C
Point de rosée: DewpointC °C 9.4 °C 11.3 °C
Humidité: Humidity % 53 % 56 %
Vitesse du vent: 0 km/h 0 km/h 4 km/h
Rafales: 0 km/h - -
Vent:- - SE
Pression: PressurehPa hPa 1017.2 hPa -
Précipitations: 0.0 mm    
Historical Graphs
 
 
Mesures pour : Septembre 29, 2017
Heure Temperature Point de rosée Pression Vent Vitesse du vent Rafales Humidité Pluie (par heure) Conditions
TemperatureC °C DewpointC °C PressurehPa hPa Calm     Humidity % HourlyPrecipMM mm SoftwareType W/m2
00:11 18.4 °C 10.2 °C 1020.9 hPa NNE 2.3 km/h 2.3 km/h 59 % 0.0 mm open2300-1.11 W/m2
01:11 18.1 °C 9.9 °C 1020.5 hPa North 3.4 km/h 3.4 km/h 59 % 0.0 mm open2300-1.11 W/m2
02:11 18.1 °C 9.9 °C 1020.2 hPa NW 8 km/h 8.9 km/h 59 % 0.0 mm open2300-1.11 W/m2
03:11 17.8 °C 9.7 °C 1020.2 hPa NNE 2.9 km/h 11.6 km/h 59 % 0.0 mm open2300-1.11 W/m2
04:11 17.9 °C 9.7 °C 1019.9 hPa North 5.6 km/h 7.6 km/h 59 % 0.0 mm open2300-1.11 W/m2
06:11 17.6 °C 9.4 °C 1019.2 hPa NNE 4.2 km/h 4.2 km/h 59 % 0.0 mm open2300-1.11 W/m2
07:11 17.9 °C 9.7 °C 1019.2 hPa Calm   4.2 km/h 59 % 0.0 mm open2300-1.11 W/m2
08:11 17.9 °C 9.4 °C 1019.5 hPa NW 7.6 km/h 8 km/h 58 % 0.0 mm open2300-1.11 W/m2
09:11 19.4 °C 10.7 °C 1019.5 hPa SE 2.3 km/h 5.1 km/h 57 % 0.0 mm open2300-1.11 W/m2
10:11 19.9 °C 11.4 °C 1019.9 hPa SSE 5.1 km/h 5.1 km/h 58 % 0.0 mm open2300-1.11 W/m2
11:11 21.3 °C 13.0 °C 1019.5 hPa Calm   6.4 km/h 59 % 0.0 mm open2300-1.11 W/m2
12:11 23.1 °C 12.9 °C 1019.5 hPa Calm   6.4 km/h 53 % 0.0 mm open2300-1.11 W/m2
13:11 23.7 °C 14.1 °C 1018.8 hPa SW 8 km/h 8 km/h 55 % 0.0 mm open2300-1.11 W/m2
14:11 23.8 °C 15.6 °C 1018.5 hPa SE 9.8 km/h 12.2 km/h 60 % 0.0 mm open2300-1.11 W/m2
15:11 23.1 °C 15.1 °C 1018.2 hPa SE 7.6 km/h 7.6 km/h 61 % 0.0 mm open2300-1.11 W/m2
16:11 22.9 °C 15.4 °C 1017.5 hPa Calm   2.3 km/h 63 % 0.0 mm open2300-1.11 W/m2
17:11 22.8 °C 15.4 °C 1017.5 hPa Calm   6.9 km/h 63 % 0.0 mm open2300-1.11 W/m2
18:11 22.3 °C 14.7 °C 1017.2 hPa SSE 4.2 km/h 7.6 km/h 62 % 0.0 mm open2300-1.11 W/m2
19:11 21.3 °C 14.2 °C 1017.5 hPa Calm     64 % 0.0 mm open2300-1.11 W/m2
20:11 20.1 °C 10.7 °C 1017.5 hPa NNW 19.2 km/h 19.2 km/h 55 % 0.0 mm open2300-1.11 W/m2
21:11 19.5 °C 10.2 °C 1017.8 hPa Calm   6.9 km/h 55 % 0.0 mm open2300-1.11 W/m2
22:11 18.9 °C 9.9 °C 1017.8 hPa Calm     56 % 0.0 mm open2300-1.11 W/m2
23:11 18.6 °C 10.4 °C 1017.8 hPa North 6.4 km/h 11.6 km/h 59 % 0.0 mm open2300-1.11 W/m2
Observations météo à CASSIS
WU-History script by Weather Underground - 1 mb